createdAt,value
2018-02-08T00:02:09.498Z,76.12
2018-02-08T00:04:36.913Z,69.18
2018-02-08T00:07:04.493Z,75.25
2018-02-08T00:09:31.673Z,76.47
2018-02-08T00:11:58.797Z,79.45
2018-02-08T00:14:25.840Z,69.65
2018-02-08T00:16:53.502Z,78.78
2018-02-08T00:19:20.385Z,73.40
2018-02-08T00:21:47.926Z,70.65
2018-02-08T00:24:15.442Z,81.07
2018-02-08T00:26:42.521Z,91.18
2018-02-08T00:29:09.980Z,95.78
2018-02-08T00:31:37.351Z,90.72
2018-02-08T00:34:04.963Z,90.82
2018-02-08T00:36:32.543Z,70.60
2018-02-08T00:38:59.657Z,83.82
2018-02-08T00:41:27.206Z,71.75
2018-02-08T00:43:54.706Z,73.32
2018-02-08T00:46:22.481Z,82.57
2018-02-08T00:48:50.316Z,80.68
2018-02-08T00:51:17.606Z,84.65
2018-02-08T00:53:44.591Z,81.43
2018-02-08T00:56:11.843Z,78.70
2018-02-08T00:58:39.233Z,85.10
2018-02-08T01:01:06.524Z,73.72
2018-02-08T01:03:33.845Z,83.00
2018-02-08T01:06:01.410Z,81.10
2018-02-08T01:08:28.692Z,88.00
2018-02-08T01:10:55.806Z,90.12
2018-02-08T01:13:22.855Z,101.55
2018-02-08T01:15:50.525Z,89.60
2018-02-08T01:18:17.666Z,85.90
2018-02-08T01:20:44.673Z,86.93
2018-02-08T01:23:11.853Z,85.70
2018-02-08T01:25:38.840Z,91.63
2018-02-08T01:28:06.205Z,80.60
2018-02-08T01:30:33.466Z,79.25
2018-02-08T01:33:00.628Z,86.03
2018-02-08T01:35:28.213Z,88.65
2018-02-08T01:37:56.514Z,81.95
2018-02-08T01:40:23.691Z,88.85
2018-02-08T01:42:51.085Z,94.82
2018-02-08T01:45:18.229Z,87.15
2018-02-08T01:47:45.264Z,84.43
2018-02-08T01:50:12.612Z,85.53
2018-02-08T01:52:39.814Z,86.82
2018-02-08T01:55:07.234Z,93.22
2018-02-08T01:57:34.954Z,101.68
2018-02-08T02:00:02.516Z,85.62
2018-02-08T02:02:29.741Z,85.68
2018-02-08T02:04:56.899Z,83.95
2018-02-08T02:07:23.801Z,82.35
2018-02-08T02:09:51.079Z,90.87
2018-02-08T02:12:18.518Z,94.70
2018-02-08T02:14:45.868Z,99.35
2018-02-08T02:17:13.591Z,88.55
2018-02-08T02:19:40.885Z,100.60
2018-02-08T02:22:08.098Z,99.65
2018-02-08T02:24:35.787Z,103.03
2018-02-08T02:27:03.005Z,120.72
2018-02-08T02:29:30.236Z,116.03
2018-02-08T02:31:57.719Z,128.05
2018-02-08T02:34:24.809Z,124.80
2018-02-08T02:36:52.062Z,119.50
2018-02-08T02:39:19.293Z,106.05
2018-02-08T02:41:46.733Z,116.65
2018-02-08T02:44:14.509Z,126.07
2018-02-08T02:46:42.219Z,128.05
2018-02-08T02:49:09.344Z,123.85
2018-02-08T02:51:36.610Z,127.95
2018-02-08T02:54:03.801Z,126.90
2018-02-08T02:56:30.775Z,113.15
2018-02-08T02:58:58.193Z,135.50
2018-02-08T03:01:25.393Z,138.62
2018-02-08T03:03:53.503Z,141.60
2018-02-08T03:06:20.821Z,118.65
2018-02-08T03:08:48.213Z,134.93
2018-02-08T03:11:15.402Z,121.22
2018-02-08T03:13:42.485Z,116.45
2018-02-08T03:16:10.212Z,120.87
2018-02-08T03:18:37.493Z,120.32
2018-02-08T03:21:05.131Z,123.75
2018-02-08T03:23:32.490Z,106.85
2018-02-08T03:25:59.698Z,104.75
2018-02-08T03:28:27.033Z,99.95
2018-02-08T03:30:56.351Z,104.53
2018-02-08T03:33:23.849Z,102.82
2018-02-08T03:35:51.103Z,88.72
2018-02-08T03:38:18.565Z,103.38
2018-02-08T03:40:46.220Z,93.40
2018-02-08T03:43:13.524Z,94.57
2018-02-08T03:45:40.869Z,96.35
2018-02-08T03:48:08.063Z,105.30
2018-02-08T03:50:36.051Z,98.97
2018-02-08T03:53:03.584Z,108.32
2018-02-08T03:55:30.818Z,106.00
2018-02-08T03:57:57.904Z,100.45
2018-02-08T04:00:25.685Z,92.30
2018-02-08T04:02:52.725Z,97.18
2018-02-08T04:05:20.180Z,95.07
2018-02-08T04:07:47.687Z,86.55
2018-02-08T04:10:15.261Z,87.10
2018-02-08T04:12:42.578Z,94.25
2018-02-08T04:15:10.191Z,95.35
2018-02-08T04:17:37.497Z,86.55
2018-02-08T04:20:04.772Z,98.35
2018-02-08T04:22:32.246Z,89.07
2018-02-08T04:24:59.166Z,90.50
2018-02-08T04:27:26.298Z,87.68
2018-02-08T04:29:53.928Z,84.25
2018-02-08T04:32:21.391Z,78.18
2018-02-08T04:34:49.165Z,75.45
2018-02-08T04:37:16.513Z,80.60
2018-02-08T04:39:55.848Z,67.75
2018-02-08T04:42:29.549Z,66.25
2018-02-08T04:45:08.477Z,64.75
2018-02-08T04:50:38.444Z,65.75
2018-02-08T04:53:08.423Z,56.75
2018-02-08T04:55:37.838Z,54.13
2018-02-08T04:58:07.138Z,48.67
2018-02-08T05:00:36.511Z,49.47
2018-02-08T05:03:06.042Z,48.42
2018-02-08T05:05:35.397Z,47.33
2018-02-08T05:08:04.590Z,55.53
2018-02-08T05:10:33.950Z,49.67
2018-02-08T05:13:03.725Z,54.17
2018-02-08T05:15:33.243Z,56.70
2018-02-08T05:18:03.286Z,46.95
2018-02-08T05:20:32.595Z,52.42
2018-02-08T05:23:02.511Z,48.58
2018-02-08T05:25:32.103Z,50.05
2018-02-08T05:28:01.620Z,53.33
2018-02-08T05:30:31.200Z,46.85
2018-02-08T05:33:00.694Z,49.22
2018-02-08T05:35:29.985Z,50.60
2018-02-08T05:37:59.573Z,44.95
2018-02-08T05:40:29.751Z,44.67
2018-02-08T05:42:59.173Z,60.83
2018-02-08T05:45:28.350Z,47.78
2018-02-08T05:47:58.129Z,51.88
2018-02-08T05:50:27.502Z,52.67
2018-02-08T05:52:56.620Z,64.25
2018-02-08T05:55:26.176Z,58.47
2018-02-08T05:57:55.311Z,51.53
2018-02-08T06:00:24.338Z,48.25
2018-02-08T06:02:53.609Z,48.15
2018-02-08T06:05:22.950Z,56.92
2018-02-08T06:07:52.645Z,55.92
2018-02-08T06:10:21.946Z,59.83
2018-02-08T06:12:51.132Z,66.97
2018-02-08T06:15:20.189Z,74.72
2018-02-08T06:17:49.488Z,69.93
2018-02-08T06:20:18.801Z,72.93
2018-02-08T06:22:48.249Z,73.05
2018-02-08T06:25:17.629Z,65.95
2018-02-08T06:27:46.978Z,86.40
2018-02-08T06:30:16.189Z,97.45
2018-02-08T06:32:45.230Z,101.12
2018-02-08T06:35:14.375Z,101.40
2018-02-08T06:37:44.311Z,94.13
2018-02-08T06:40:13.542Z,87.18
2018-02-08T06:42:42.657Z,83.75
2018-02-08T06:45:12.084Z,82.68
2018-02-08T06:47:41.218Z,79.18
2018-02-08T06:50:10.672Z,65.25
2018-02-08T06:52:40.240Z,67.85
2018-02-08T06:55:09.698Z,58.47
2018-02-08T06:57:39.218Z,58.72
2018-02-08T07:00:08.622Z,49.43
2018-02-08T07:02:37.871Z,52.15
2018-02-08T07:05:07.101Z,55.37
2018-02-08T07:07:36.389Z,65.67
2018-02-08T07:10:05.597Z,47.87
2018-02-08T07:12:35.944Z,49.67
2018-02-08T07:15:05.309Z,44.10
2018-02-08T07:17:34.765Z,46.63
2018-02-08T07:20:04.461Z,50.47
2018-02-08T07:22:34.050Z,53.90
2018-02-08T07:25:03.658Z,58.07
2018-02-08T07:27:33.362Z,61.30
2018-02-08T07:30:02.658Z,52.17
2018-02-08T07:32:32.295Z,55.93
2018-02-08T07:35:01.554Z,54.20
2018-02-08T07:37:30.605Z,48.97
2018-02-08T07:39:59.656Z,45.83
2018-02-08T07:42:29.284Z,41.63
2018-02-08T07:44:58.361Z,37.57
2018-02-08T07:47:27.452Z,44.60
2018-02-08T07:49:57.224Z,38.07
2018-02-08T07:52:27.076Z,41.77
2018-02-08T07:54:56.514Z,38.43
2018-02-08T07:57:25.713Z,36.73
2018-02-08T07:59:54.776Z,42.13
2018-02-08T08:02:23.885Z,44.83
2018-02-08T08:04:52.862Z,44.87
2018-02-08T08:07:22.289Z,48.07
2018-02-08T08:09:51.273Z,67.53
2018-02-08T08:12:20.460Z,78.23
2018-02-08T08:14:49.563Z,76.90
2018-02-08T08:17:18.898Z,56.50
2018-02-08T08:19:48.361Z,53.27
2018-02-08T08:22:17.959Z,45.40
2018-02-08T08:24:47.060Z,40.93
2018-02-08T08:27:16.634Z,33.93
2018-02-08T08:29:45.821Z,35.83
2018-02-08T08:32:15.141Z,32.70
2018-02-08T08:34:44.163Z,31.87
2018-02-08T08:37:13.173Z,34.23
2018-02-08T08:39:42.289Z,35.10
2018-02-08T08:42:11.872Z,43.47
2018-02-08T08:44:41.159Z,48.67
2018-02-08T08:47:10.666Z,41.60
2018-02-08T08:49:40.148Z,44.50
2018-02-08T08:52:09.513Z,45.77
2018-02-08T08:54:38.819Z,40.83
2018-02-08T08:57:07.741Z,40.20
2018-02-08T08:59:36.756Z,38.00
2018-02-08T09:02:06.131Z,36.13
2018-02-08T09:04:35.650Z,31.67
2018-02-08T09:07:04.772Z,31.37
2018-02-08T09:09:33.877Z,33.57
2018-02-08T09:12:03.470Z,32.80
2018-02-08T09:14:32.658Z,36.33
2018-02-08T09:17:02.073Z,36.43
2018-02-08T09:19:31.410Z,37.43
2018-02-08T09:22:00.785Z,39.00
2018-02-08T09:24:30.264Z,38.27
2018-02-08T09:26:59.413Z,39.47
2018-02-08T09:29:29.061Z,37.97
2018-02-08T09:31:58.486Z,44.87
2018-02-08T09:34:27.704Z,44.77
2018-02-08T09:36:57.196Z,43.23
2018-02-08T09:39:26.343Z,44.00
2018-02-08T09:41:55.802Z,42.33
2018-02-08T09:44:25.143Z,37.70
2018-02-08T09:46:54.389Z,34.07
2018-02-08T09:49:23.534Z,30.20
2018-02-08T09:51:53.379Z,28.50
2018-02-08T09:54:23.328Z,27.60
2018-02-08T09:56:53.033Z,26.43
2018-02-08T09:59:22.593Z,25.57
2018-02-08T10:01:52.050Z,24.53
2018-02-08T10:04:21.589Z,19.27
2018-02-08T10:06:51.155Z,20.20
2018-02-08T10:09:20.574Z,25.87
2018-02-08T10:11:49.890Z,21.60
2018-02-08T10:14:19.404Z,22.30
2018-02-08T10:16:48.940Z,17.17
2018-02-08T10:19:18.798Z,20.20
2018-02-08T10:21:48.237Z,25.73
2018-02-08T10:24:17.528Z,22.40
2018-02-08T10:26:47.018Z,18.47
2018-02-08T10:29:16.630Z,17.03
2018-02-08T10:31:45.913Z,19.03
2018-02-08T10:34:15.324Z,17.57
2018-02-08T10:36:44.725Z,16.53
2018-02-08T10:39:14.072Z,19.13
2018-02-08T10:41:43.541Z,16.93
2018-02-08T10:44:12.513Z,13.10
2018-02-08T10:46:41.662Z,13.40
2018-02-08T10:49:11.737Z,16.67
2018-02-08T10:51:41.652Z,15.13
2018-02-08T10:54:10.992Z,13.20
2018-02-08T10:56:40.634Z,14.80
2018-02-08T10:59:10.786Z,14.50
2018-02-08T11:01:40.246Z,15.77
2018-02-08T11:04:09.661Z,14.97
2018-02-08T11:06:38.935Z,15.13
2018-02-08T11:09:08.402Z,16.23
2018-02-08T11:11:37.625Z,15.50
2018-02-08T11:14:07.794Z,17.03
2018-02-08T11:16:36.987Z,21.90
2018-02-08T11:19:06.461Z,30.10
2018-02-08T11:21:35.825Z,17.00
2018-02-08T11:24:04.937Z,20.73
2018-02-08T11:26:34.565Z,17.60
2018-02-08T11:29:03.628Z,18.93
2018-02-08T11:31:32.689Z,19.90
2018-02-08T11:34:01.849Z,20.73
2018-02-08T11:36:31.626Z,26.13
2018-02-08T11:39:01.127Z,21.93
2018-02-08T11:41:30.461Z,32.97
2018-02-08T11:44:00.161Z,26.97
2018-02-08T11:46:29.645Z,27.93
2018-02-08T11:48:59.047Z,29.83
2018-02-08T11:51:28.812Z,35.07
2018-02-08T11:53:58.166Z,33.70
2018-02-08T11:56:27.768Z,28.40
2018-02-08T11:58:57.624Z,29.47
2018-02-08T12:01:26.989Z,31.30
2018-02-08T12:03:56.641Z,29.07
2018-02-08T12:06:26.113Z,35.83
2018-02-08T12:08:55.656Z,31.80
2018-02-08T12:11:25.681Z,33.63
2018-02-08T12:13:54.884Z,29.97
2018-02-08T12:16:24.286Z,27.80
2018-02-08T12:18:53.534Z,30.73
2018-02-08T12:21:23.045Z,26.10
2018-02-08T12:23:52.697Z,28.13
2018-02-08T12:26:22.305Z,27.93
2018-02-08T12:28:51.830Z,25.27
2018-02-08T12:31:21.097Z,24.10
2018-02-08T12:33:50.366Z,29.37
2018-02-08T12:36:19.593Z,29.23
2018-02-08T12:38:48.893Z,24.50
2018-02-08T12:41:18.664Z,27.30
2018-02-08T12:43:47.858Z,25.23
2018-02-08T12:46:17.342Z,27.83
2018-02-08T12:48:46.872Z,28.43
2018-02-08T12:51:16.795Z,28.23
2018-02-08T12:53:46.443Z,24.23
2018-02-08T12:56:15.874Z,24.00
2018-02-08T12:58:44.996Z,25.73
2018-02-08T13:01:14.362Z,22.67
2018-02-08T13:03:44.159Z,20.97
2018-02-08T13:06:13.946Z,23.80
2018-02-08T13:08:43.301Z,26.83
2018-02-08T13:11:12.403Z,24.70
2018-02-08T13:13:41.730Z,21.90
2018-02-08T13:16:10.878Z,24.17
2018-02-08T13:18:40.553Z,24.50
2018-02-08T13:21:10.240Z,26.50
2018-02-08T13:23:39.860Z,27.00
2018-02-08T13:26:09.334Z,22.77
2018-02-08T13:28:38.975Z,24.27
2018-02-08T13:31:08.272Z,19.43
2018-02-08T13:33:37.546Z,27.43
2018-02-08T13:36:07.218Z,26.13
2018-02-08T13:38:36.536Z,29.13
2018-02-08T13:41:05.816Z,22.07
2018-02-08T13:43:35.331Z,28.53
2018-02-08T13:46:04.948Z,26.93
2018-02-08T13:48:34.794Z,23.40
2018-02-08T13:51:09.615Z,21.57
2018-02-08T13:56:53.191Z,25.87
2018-02-08T14:02:34.058Z,22.43
2018-02-08T14:05:03.290Z,27.73
2018-02-08T14:07:32.409Z,21.87
2018-02-08T14:10:01.797Z,25.50
2018-02-08T14:12:31.116Z,24.00
2018-02-08T14:15:00.934Z,23.97
2018-02-08T14:17:30.478Z,24.87
2018-02-08T14:20:00.119Z,22.63
2018-02-08T14:22:29.337Z,28.13
2018-02-08T14:24:59.282Z,27.37
2018-02-08T14:27:28.942Z,24.33
2018-02-08T14:29:58.207Z,23.50
2018-02-08T14:32:27.544Z,27.10
2018-02-08T14:34:56.854Z,22.53
2018-02-08T14:37:26.236Z,22.73
2018-02-08T14:39:55.916Z,22.37
2018-02-08T14:42:25.131Z,27.97
2018-02-08T14:44:54.581Z,27.63
2018-02-08T14:47:23.766Z,27.07
2018-02-08T14:49:52.739Z,24.80
2018-02-08T14:52:22.194Z,26.37
2018-02-08T14:54:51.151Z,24.50
2018-02-08T14:57:20.389Z,27.17
2018-02-08T14:59:49.813Z,28.80
2018-02-08T15:02:19.517Z,30.73
2018-02-08T15:04:48.788Z,32.90
2018-02-08T15:07:18.046Z,34.83
2018-02-08T15:09:47.142Z,33.33
2018-02-08T15:12:16.802Z,38.03
2018-02-08T15:14:46.180Z,39.03
2018-02-08T15:17:15.733Z,27.67
2018-02-08T15:19:45.123Z,27.33
2018-02-08T15:22:14.390Z,32.10
2018-02-08T15:24:43.413Z,36.93
2018-02-08T15:27:12.713Z,36.43
2018-02-08T15:29:42.426Z,33.13
2018-02-08T15:32:12.011Z,45.93
2018-02-08T15:34:41.401Z,29.50
2018-02-08T15:37:10.520Z,30.43
2018-02-08T15:39:39.602Z,36.13
2018-02-08T15:42:09.110Z,35.47
2018-02-08T15:44:38.357Z,38.53
2018-02-08T15:47:07.587Z,39.07
2018-02-08T15:49:37.224Z,32.73
2018-02-08T15:52:06.262Z,36.57
2018-02-08T15:54:35.516Z,40.93
2018-02-08T15:57:04.902Z,42.93
2018-02-08T15:59:34.410Z,46.70
2018-02-08T16:02:03.572Z,47.23
2018-02-08T16:04:33.281Z,49.93
2018-02-08T16:07:02.273Z,47.23
2018-02-08T16:09:31.682Z,44.03
2018-02-08T16:12:01.620Z,43.07
2018-02-08T16:14:31.406Z,67.00
2018-02-08T16:17:00.952Z,54.53
2018-02-08T16:19:30.392Z,59.30
2018-02-08T16:21:59.542Z,53.97
2018-02-08T16:24:28.571Z,44.07
2018-02-08T16:26:57.527Z,40.23
2018-02-08T16:29:26.960Z,61.93
2018-02-08T16:31:56.458Z,78.50
2018-02-08T16:34:25.577Z,89.67
2018-02-08T16:36:54.828Z,58.10
2018-02-08T16:39:23.906Z,62.93
2018-02-08T16:41:53.256Z,53.33
2018-02-08T16:44:22.595Z,67.37
2018-02-08T16:46:51.904Z,67.53
2018-02-08T16:49:20.948Z,64.17
2018-02-08T16:51:50.274Z,61.23
2018-02-08T16:54:19.788Z,60.03
2018-02-08T16:56:49.036Z,68.97
2018-02-08T16:59:18.372Z,67.33
2018-02-08T17:01:47.832Z,61.43
2018-02-08T17:04:16.987Z,62.73
2018-02-08T17:06:46.117Z,83.23
2018-02-08T17:09:15.105Z,72.80
2018-02-08T17:11:44.217Z,82.97
2018-02-08T17:14:13.556Z,85.37
2018-02-08T17:16:42.842Z,97.97
2018-02-08T17:19:11.868Z,115.70
2018-02-08T17:21:41.378Z,172.67
2018-02-08T17:24:11.585Z,114.57
2018-02-08T17:26:40.864Z,131.13
2018-02-08T17:29:10.078Z,143.47
2018-02-08T17:31:39.168Z,141.10
2018-02-08T17:34:08.285Z,90.67
2018-02-08T17:36:37.577Z,93.63
2018-02-08T17:39:06.728Z,86.13
2018-02-08T17:41:35.918Z,81.43
2018-02-08T17:44:04.988Z,102.93
2018-02-08T17:46:34.474Z,160.63
2018-02-08T17:49:03.817Z,112.63
2018-02-08T17:51:32.926Z,87.70
2018-02-08T17:54:01.925Z,72.40
2018-02-08T17:56:30.977Z,74.03
2018-02-08T17:59:00.174Z,66.43
2018-02-08T18:01:29.498Z,71.70
2018-02-08T18:03:58.566Z,62.23
2018-02-08T18:06:27.641Z,56.67
2018-02-08T18:08:57.134Z,59.83
2018-02-08T18:11:26.474Z,62.07
2018-02-08T18:13:55.471Z,56.77
2018-02-08T18:16:24.730Z,51.07
2018-02-08T18:18:53.955Z,56.07
2018-02-08T18:21:23.038Z,65.40
2018-02-08T18:23:52.442Z,67.83
2018-02-08T18:26:22.205Z,81.57
2018-02-08T18:28:51.416Z,81.03
2018-02-08T18:31:20.423Z,87.83
2018-02-08T18:33:49.691Z,122.23
2018-02-08T18:36:19.129Z,121.20
2018-02-08T18:38:48.471Z,128.00
2018-02-08T18:41:17.832Z,145.20
2018-02-08T18:43:47.301Z,141.47
2018-02-08T18:46:16.378Z,165.30
2018-02-08T18:48:45.909Z,183.70
2018-02-08T18:51:15.141Z,163.53
2018-02-08T18:53:44.356Z,168.07
2018-02-08T18:56:13.698Z,181.60
2018-02-08T18:58:42.769Z,166.87
2018-02-08T19:01:11.796Z,164.93
2018-02-08T19:03:41.028Z,178.70
2018-02-08T19:06:10.258Z,179.98
2018-02-08T19:08:39.585Z,201.90
2018-02-08T19:11:09.352Z,178.93
2018-02-08T19:13:38.766Z,169.00
2018-02-08T19:16:07.957Z,151.57
2018-02-08T19:18:37.227Z,153.32
2018-02-08T19:21:06.585Z,153.30
2018-02-08T19:23:35.733Z,140.45
2018-02-08T19:26:05.133Z,145.83
2018-02-08T19:28:34.256Z,148.77
2018-02-08T19:31:03.634Z,126.53
2018-02-08T19:33:32.987Z,133.98
2018-02-08T19:36:02.068Z,132.90
2018-02-08T19:38:31.718Z,117.00
2018-02-08T19:41:01.118Z,95.87
2018-02-08T19:43:30.723Z,99.00
2018-02-08T19:46:00.212Z,75.53
2018-02-08T19:48:34.181Z,78.60
2018-02-08T19:51:03.811Z,101.72
2018-02-08T19:53:33.145Z,104.27
2018-02-08T19:56:02.714Z,103.00
2018-02-08T19:58:32.177Z,113.47
2018-02-08T20:01:02.228Z,101.35
2018-02-08T20:03:31.688Z,91.25
2018-02-08T20:06:00.971Z,86.82
2018-02-08T20:08:30.933Z,84.53
2018-02-08T20:11:00.514Z,75.15
2018-02-08T20:13:29.879Z,75.30
2018-02-08T20:15:59.307Z,82.03
2018-02-08T20:18:28.997Z,99.62
2018-02-08T20:20:58.392Z,76.25
2018-02-08T20:23:27.709Z,82.65
2018-02-08T20:25:57.008Z,77.50
2018-02-08T20:28:26.351Z,81.20
2018-02-08T20:31:01.029Z,82.70
2018-02-08T20:33:30.478Z,82.12
2018-02-08T20:35:59.674Z,83.47
2018-02-08T20:38:29.034Z,77.03
2018-02-08T20:40:58.752Z,91.12
2018-02-08T20:43:35.725Z,101.10
2018-02-08T20:46:05.240Z,103.95
2018-02-08T20:48:34.545Z,119.57
2018-02-08T20:51:03.819Z,125.68
2018-02-08T20:53:33.336Z,120.87
2018-02-08T20:56:02.838Z,113.95
2018-02-08T20:58:32.121Z,101.90
2018-02-08T21:01:01.426Z,119.57
2018-02-08T21:03:30.736Z,157.52
2018-02-08T21:05:59.871Z,170.90
2018-02-08T21:08:29.501Z,130.85
2018-02-08T21:10:58.929Z,168.62
2018-02-08T21:13:28.240Z,149.80
2018-02-08T21:15:57.642Z,131.27
2018-02-08T21:18:26.943Z,129.00
2018-02-08T21:20:56.121Z,122.32
2018-02-08T21:23:25.341Z,139.02
2018-02-08T21:25:54.910Z,143.93
2018-02-08T21:28:24.460Z,140.98
2018-02-08T21:30:54.441Z,162.10
2018-02-08T21:33:23.929Z,199.95
2018-02-08T21:35:53.778Z,230.40
2018-02-08T21:38:23.362Z,229.85
2018-02-08T21:40:52.939Z,236.23
2018-02-08T21:43:22.677Z,250.02
2018-02-08T21:45:51.999Z,254.40
2018-02-08T21:48:21.522Z,242.77
2018-02-08T21:50:51.309Z,284.25
2018-02-08T21:53:21.188Z,273.98
2018-02-08T21:55:51.065Z,236.00
2018-02-08T21:58:20.416Z,274.35
2018-02-08T22:00:49.665Z,262.35
2018-02-08T22:03:19.238Z,233.35
2018-02-08T22:05:48.988Z,203.73
2018-02-08T22:08:18.867Z,195.75
2018-02-08T22:10:48.299Z,214.07
2018-02-08T22:13:17.732Z,232.95
2018-02-08T22:15:47.281Z,215.43
2018-02-08T22:18:16.513Z,223.23
2018-02-08T22:20:45.992Z,219.98
2018-02-08T22:23:15.276Z,196.00
2018-02-08T22:25:44.760Z,218.43
2018-02-08T22:28:14.189Z,243.98
2018-02-08T22:30:43.642Z,263.70
2018-02-08T22:33:12.919Z,265.15
2018-02-08T22:35:42.208Z,268.35
2018-02-08T22:38:11.553Z,266.38
2018-02-08T22:40:40.833Z,263.83
2018-02-08T22:43:10.322Z,289.75
2018-02-08T22:45:39.644Z,274.60
2018-02-08T22:48:08.987Z,269.30
2018-02-08T22:50:38.761Z,305.40
2018-02-08T22:53:08.053Z,288.12
2018-02-08T22:55:37.209Z,274.90
2018-02-08T22:58:06.516Z,272.63
2018-02-08T23:00:35.942Z,266.52
2018-02-08T23:03:05.004Z,220.85
2018-02-08T23:05:34.348Z,250.40
2018-02-08T23:08:03.722Z,229.85
2018-02-08T23:10:33.369Z,240.90
2018-02-08T23:13:02.962Z,254.98
2018-02-08T23:15:32.390Z,238.98
2018-02-08T23:18:01.995Z,250.13
2018-02-08T23:20:31.306Z,262.98
2018-02-08T23:23:00.863Z,527.42
2018-02-08T23:25:30.289Z,481.58
2018-02-08T23:27:59.860Z,277.73
2018-02-08T23:30:29.290Z,302.25
2018-02-08T23:32:58.680Z,259.02
2018-02-08T23:35:28.010Z,270.45
2018-02-08T23:37:58.633Z,264.35
2018-02-08T23:40:28.762Z,287.30
2018-02-08T23:42:58.170Z,305.42
2018-02-08T23:45:27.431Z,282.52
2018-02-08T23:47:57.010Z,290.35
2018-02-08T23:50:26.888Z,294.48
2018-02-08T23:52:56.251Z,239.68
2018-02-08T23:55:25.413Z,253.50
2018-02-08T23:57:55.098Z,234.73
